sensor_id;sensor_type;location;lat;lon;timestamp;P1;durP1;ratioP1;P2;durP2;ratioP2
57730;SDS011;43570;47.476;19.040;2022-09-17T00:00:40;7.68;;;5.60;;
57730;SDS011;43570;47.476;19.040;2022-09-17T00:03:06;6.00;;;5.07;;
57730;SDS011;43570;47.476;19.040;2022-09-17T00:05:32;8.48;;;4.97;;
57730;SDS011;43570;47.476;19.040;2022-09-17T00:07:59;6.87;;;4.90;;
57730;SDS011;43570;47.476;19.040;2022-09-17T00:10:25;6.55;;;4.95;;
57730;SDS011;43570;47.476;19.040;2022-09-17T00:12:50;6.50;;;4.97;;
57730;SDS011;43570;47.476;19.040;2022-09-17T00:15:16;8.13;;;4.75;;
57730;SDS011;43570;47.476;19.040;2022-09-17T00:17:41;7.12;;;5.37;;
57730;SDS011;43570;47.476;19.040;2022-09-17T00:20:07;8.05;;;5.87;;
57730;SDS011;43570;47.476;19.040;2022-09-17T00:22:36;6.35;;;4.72;;
57730;SDS011;43570;47.476;19.040;2022-09-17T00:25:02;6.90;;;5.10;;
57730;SDS011;43570;47.476;19.040;2022-09-17T00:27:29;7.90;;;5.12;;
57730;SDS011;43570;47.476;19.040;2022-09-17T00:29:54;7.72;;;5.20;;
57730;SDS011;43570;47.476;19.040;2022-09-17T00:32:19;6.20;;;4.87;;
57730;SDS011;43570;47.476;19.040;2022-09-17T00:34:45;6.57;;;5.35;;
57730;SDS011;43570;47.476;19.040;2022-09-17T00:37:10;7.15;;;5.28;;
57730;SDS011;43570;47.476;19.040;2022-09-17T00:39:36;6.53;;;5.25;;
57730;SDS011;43570;47.476;19.040;2022-09-17T00:42:01;7.50;;;4.90;;
57730;SDS011;43570;47.476;19.040;2022-09-17T00:47:17;8.27;;;5.12;;
57730;SDS011;43570;47.476;19.040;2022-09-17T00:49:45;7.60;;;5.30;;
57730;SDS011;43570;47.476;19.040;2022-09-17T00:52:16;6.70;;;4.82;;
57730;SDS011;43570;47.476;19.040;2022-09-17T00:54:45;6.35;;;4.75;;
57730;SDS011;43570;47.476;19.040;2022-09-17T00:57:15;7.72;;;5.25;;
57730;SDS011;43570;47.476;19.040;2022-09-17T00:59:41;8.00;;;5.05;;
57730;SDS011;43570;47.476;19.040;2022-09-17T01:02:06;7.37;;;5.50;;
57730;SDS011;43570;47.476;19.040;2022-09-17T01:04:32;6.93;;;5.22;;
57730;SDS011;43570;47.476;19.040;2022-09-17T01:07:05;7.65;;;5.87;;
57730;SDS011;43570;47.476;19.040;2022-09-17T01:18:21;9.52;;;6.15;;
57730;SDS011;43570;47.476;19.040;2022-09-17T01:31:23;8.13;;;5.00;;
57730;SDS011;43570;47.476;19.040;2022-09-17T01:47:12;6.05;;;4.15;;
57730;SDS011;43570;47.476;19.040;2022-09-17T01:49:40;6.20;;;3.83;;
57730;SDS011;43570;47.476;19.040;2022-09-17T01:52:06;6.65;;;4.05;;
57730;SDS011;43570;47.476;19.040;2022-09-17T01:54:34;5.65;;;4.18;;
57730;SDS011;43570;47.476;19.040;2022-09-17T01:57:10;8.10;;;4.35;;
57730;SDS011;43570;47.476;19.040;2022-09-17T01:59:46;5.65;;;4.22;;
57730;SDS011;43570;47.476;19.040;2022-09-17T02:02:16;8.35;;;4.47;;
57730;SDS011;43570;47.476;19.040;2022-09-17T02:04:51;8.32;;;4.82;;
57730;SDS011;43570;47.476;19.040;2022-09-17T02:07:21;7.43;;;5.07;;
57730;SDS011;43570;47.476;19.040;2022-09-17T02:09:58;6.82;;;5.05;;
57730;SDS011;43570;47.476;19.040;2022-09-17T02:12:30;6.93;;;5.15;;
57730;SDS011;43570;47.476;19.040;2022-09-17T02:14:59;7.10;;;5.05;;
57730;SDS011;43570;47.476;19.040;2022-09-17T02:17:31;9.05;;;5.45;;
57730;SDS011;43570;47.476;19.040;2022-09-17T02:20:03;5.55;;;4.50;;
57730;SDS011;43570;47.476;19.040;2022-09-17T02:25:14;7.18;;;4.40;;
57730;SDS011;43570;47.476;19.040;2022-09-17T02:27:56;8.20;;;4.43;;
57730;SDS011;43570;47.476;19.040;2022-09-17T02:30:25;6.32;;;3.97;;
57730;SDS011;43570;47.476;19.040;2022-09-17T02:32:50;5.10;;;3.90;;
57730;SDS011;43570;47.476;19.040;2022-09-17T02:35:16;6.50;;;4.22;;
57730;SDS011;43570;47.476;19.040;2022-09-17T02:37:42;5.75;;;3.90;;
57730;SDS011;43570;47.476;19.040;2022-09-17T02:40:09;4.70;;;3.47;;
57730;SDS011;43570;47.476;19.040;2022-09-17T02:45:43;6.22;;;3.25;;
57730;SDS011;43570;47.476;19.040;2022-09-17T02:54:09;7.28;;;3.60;;
57730;SDS011;43570;47.476;19.040;2022-09-17T02:59:25;3.53;;;3.03;;
57730;SDS011;43570;47.476;19.040;2022-09-17T03:02:03;4.12;;;2.90;;
57730;SDS011;43570;47.476;19.040;2022-09-17T03:04:31;6.87;;;3.55;;
57730;SDS011;43570;47.476;19.040;2022-09-17T03:06:58;4.97;;;2.90;;
57730;SDS011;43570;47.476;19.040;2022-09-17T03:09:24;5.22;;;3.17;;
57730;SDS011;43570;47.476;19.040;2022-09-17T03:11:50;4.28;;;3.37;;
57730;SDS011;43570;47.476;19.040;2022-09-17T03:14:15;5.53;;;3.22;;
57730;SDS011;43570;47.476;19.040;2022-09-17T03:16:41;5.10;;;3.22;;
57730;SDS011;43570;47.476;19.040;2022-09-17T03:19:06;6.12;;;3.72;;
57730;SDS011;43570;47.476;19.040;2022-09-17T03:21:32;4.93;;;3.60;;
57730;SDS011;43570;47.476;19.040;2022-09-17T03:23:57;6.28;;;4.03;;
57730;SDS011;43570;47.476;19.040;2022-09-17T03:26:24;5.30;;;3.33;;
57730;SDS011;43570;47.476;19.040;2022-09-17T03:28:50;5.95;;;3.97;;
57730;SDS011;43570;47.476;19.040;2022-09-17T03:31:15;5.65;;;3.70;;
57730;SDS011;43570;47.476;19.040;2022-09-17T03:33:40;5.30;;;3.58;;
57730;SDS011;43570;47.476;19.040;2022-09-17T03:36:06;5.25;;;3.22;;
57730;SDS011;43570;47.476;19.040;2022-09-17T03:38:31;5.22;;;3.60;;
57730;SDS011;43570;47.476;19.040;2022-09-17T03:41:02;5.57;;;3.00;;
57730;SDS011;43570;47.476;19.040;2022-09-17T03:43:29;7.30;;;3.70;;
57730;SDS011;43570;47.476;19.040;2022-09-17T03:45:54;6.10;;;3.50;;
57730;SDS011;43570;47.476;19.040;2022-09-17T03:48:20;6.20;;;3.67;;
57730;SDS011;43570;47.476;19.040;2022-09-17T03:50:46;5.93;;;3.55;;
57730;SDS011;43570;47.476;19.040;2022-09-17T03:53:11;5.40;;;3.37;;
57730;SDS011;43570;47.476;19.040;2022-09-17T03:55:37;5.65;;;3.70;;
57730;SDS011;43570;47.476;19.040;2022-09-17T03:58:03;7.45;;;4.10;;
57730;SDS011;43570;47.476;19.040;2022-09-17T04:00:28;5.25;;;3.42;;
57730;SDS011;43570;47.476;19.040;2022-09-17T04:02:54;5.62;;;3.53;;
57730;SDS011;43570;47.476;19.040;2022-09-17T04:05:19;5.78;;;3.50;;
57730;SDS011;43570;47.476;19.040;2022-09-17T04:07:45;6.28;;;3.42;;
57730;SDS011;43570;47.476;19.040;2022-09-17T04:10:10;5.82;;;3.75;;
57730;SDS011;43570;47.476;19.040;2022-09-17T04:12:36;6.18;;;3.50;;
57730;SDS011;43570;47.476;19.040;2022-09-17T04:15:01;5.70;;;3.60;;
57730;SDS011;43570;47.476;19.040;2022-09-17T04:17:27;6.70;;;3.60;;
57730;SDS011;43570;47.476;19.040;2022-09-17T04:19:52;6.97;;;4.03;;
57730;SDS011;43570;47.476;19.040;2022-09-17T04:22:18;5.97;;;3.50;;
57730;SDS011;43570;47.476;19.040;2022-09-17T04:24:43;5.55;;;3.75;;
57730;SDS011;43570;47.476;19.040;2022-09-17T04:27:09;5.25;;;3.53;;
57730;SDS011;43570;47.476;19.040;2022-09-17T04:29:34;8.77;;;3.92;;
57730;SDS011;43570;47.476;19.040;2022-09-17T04:31:59;6.87;;;3.50;;
57730;SDS011;43570;47.476;19.040;2022-09-17T04:34:25;7.80;;;4.05;;
57730;SDS011;43570;47.476;19.040;2022-09-17T04:36:50;6.60;;;3.78;;
57730;SDS011;43570;47.476;19.040;2022-09-17T04:39:16;6.62;;;3.83;;
57730;SDS011;43570;47.476;19.040;2022-09-17T04:41:41;5.35;;;3.60;;
57730;SDS011;43570;47.476;19.040;2022-09-17T04:44:07;5.80;;;3.90;;
57730;SDS011;43570;47.476;19.040;2022-09-17T04:46:32;7.18;;;3.55;;
57730;SDS011;43570;47.476;19.040;2022-09-17T04:48:57;5.95;;;4.10;;
57730;SDS011;43570;47.476;19.040;2022-09-17T04:51:23;5.60;;;3.85;;
57730;SDS011;43570;47.476;19.040;2022-09-17T04:53:48;6.18;;;3.72;;
57730;SDS011;43570;47.476;19.040;2022-09-17T04:56:14;5.93;;;3.72;;
57730;SDS011;43570;47.476;19.040;2022-09-17T04:58:39;4.68;;;3.67;;
57730;SDS011;43570;47.476;19.040;2022-09-17T05:01:04;6.65;;;3.70;;
57730;SDS011;43570;47.476;19.040;2022-09-17T05:03:30;6.00;;;3.35;;
57730;SDS011;43570;47.476;19.040;2022-09-17T05:05:55;7.30;;;3.83;;
57730;SDS011;43570;47.476;19.040;2022-09-17T05:08:21;7.65;;;3.90;;
57730;SDS011;43570;47.476;19.040;2022-09-17T05:10:48;5.57;;;4.00;;
57730;SDS011;43570;47.476;19.040;2022-09-17T05:13:15;6.93;;;3.60;;
57730;SDS011;43570;47.476;19.040;2022-09-17T05:15:40;4.78;;;3.55;;
57730;SDS011;43570;47.476;19.040;2022-09-17T05:18:06;4.90;;;3.45;;
57730;SDS011;43570;47.476;19.040;2022-09-17T05:20:32;5.80;;;3.60;;
57730;SDS011;43570;47.476;19.040;2022-09-17T05:22:57;5.75;;;3.87;;
57730;SDS011;43570;47.476;19.040;2022-09-17T05:25:22;5.93;;;3.35;;
57730;SDS011;43570;47.476;19.040;2022-09-17T05:27:48;5.72;;;3.70;;
57730;SDS011;43570;47.476;19.040;2022-09-17T05:30:14;7.10;;;3.80;;
57730;SDS011;43570;47.476;19.040;2022-09-17T05:32:41;5.85;;;3.20;;
57730;SDS011;43570;47.476;19.040;2022-09-17T05:35:07;4.78;;;3.67;;
57730;SDS011;43570;47.476;19.040;2022-09-17T05:37:33;7.18;;;3.70;;
57730;SDS011;43570;47.476;19.040;2022-09-17T05:39:59;5.80;;;3.50;;
57730;SDS011;43570;47.476;19.040;2022-09-17T05:42:24;5.87;;;3.33;;
57730;SDS011;43570;47.476;19.040;2022-09-17T05:44:49;7.45;;;3.60;;
57730;SDS011;43570;47.476;19.040;2022-09-17T05:47:15;7.65;;;3.80;;
57730;SDS011;43570;47.476;19.040;2022-09-17T05:49:40;4.75;;;3.25;;
57730;SDS011;43570;47.476;19.040;2022-09-17T05:52:06;5.60;;;3.50;;
57730;SDS011;43570;47.476;19.040;2022-09-17T05:54:31;5.97;;;3.33;;
57730;SDS011;43570;47.476;19.040;2022-09-17T05:56:57;5.57;;;3.50;;
57730;SDS011;43570;47.476;19.040;2022-09-17T05:59:22;6.32;;;3.58;;
57730;SDS011;43570;47.476;19.040;2022-09-17T06:01:47;7.15;;;3.22;;
57730;SDS011;43570;47.476;19.040;2022-09-17T06:04:13;6.07;;;3.10;;
57730;SDS011;43570;47.476;19.040;2022-09-17T06:06:39;5.18;;;2.85;;
57730;SDS011;43570;47.476;19.040;2022-09-17T06:09:05;5.70;;;3.08;;
57730;SDS011;43570;47.476;19.040;2022-09-17T06:11:31;5.90;;;3.25;;
57730;SDS011;43570;47.476;19.040;2022-09-17T06:13:56;5.65;;;3.45;;
57730;SDS011;43570;47.476;19.040;2022-09-17T06:16:22;4.82;;;3.20;;
57730;SDS011;43570;47.476;19.040;2022-09-17T06:18:48;5.35;;;3.47;;
57730;SDS011;43570;47.476;19.040;2022-09-17T06:21:19;5.45;;;3.20;;
57730;SDS011;43570;47.476;19.040;2022-09-17T06:23:46;4.25;;;2.85;;
57730;SDS011;43570;47.476;19.040;2022-09-17T06:26:12;4.53;;;2.70;;
57730;SDS011;43570;47.476;19.040;2022-09-17T06:28:38;8.27;;;3.97;;
57730;SDS011;43570;47.476;19.040;2022-09-17T06:31:04;8.02;;;3.22;;
57730;SDS011;43570;47.476;19.040;2022-09-17T06:33:31;4.50;;;2.60;;
57730;SDS011;43570;47.476;19.040;2022-09-17T06:35:57;6.12;;;3.20;;
57730;SDS011;43570;47.476;19.040;2022-09-17T06:38:25;8.07;;;3.05;;
57730;SDS011;43570;47.476;19.040;2022-09-17T06:40:51;4.05;;;2.80;;
57730;SDS011;43570;47.476;19.040;2022-09-17T06:43:17;4.10;;;2.85;;
57730;SDS011;43570;47.476;19.040;2022-09-17T06:45:42;4.55;;;2.90;;
57730;SDS011;43570;47.476;19.040;2022-09-17T06:48:08;4.47;;;2.55;;
57730;SDS011;43570;47.476;19.040;2022-09-17T06:50:33;5.35;;;2.62;;
57730;SDS011;43570;47.476;19.040;2022-09-17T06:52:58;4.47;;;2.60;;
57730;SDS011;43570;47.476;19.040;2022-09-17T06:55:24;6.72;;;3.17;;
57730;SDS011;43570;47.476;19.040;2022-09-17T06:57:49;6.75;;;2.85;;
57730;SDS011;43570;47.476;19.040;2022-09-17T07:00:15;9.68;;;3.33;;
57730;SDS011;43570;47.476;19.040;2022-09-17T07:02:40;4.15;;;2.90;;
57730;SDS011;43570;47.476;19.040;2022-09-17T07:05:05;8.98;;;3.40;;
57730;SDS011;43570;47.476;19.040;2022-09-17T07:07:31;5.12;;;3.47;;
57730;SDS011;43570;47.476;19.040;2022-09-17T07:09:58;5.35;;;2.70;;
57730;SDS011;43570;47.476;19.040;2022-09-17T07:12:24;8.60;;;3.42;;
57730;SDS011;43570;47.476;19.040;2022-09-17T07:14:49;7.30;;;3.12;;
57730;SDS011;43570;47.476;19.040;2022-09-17T07:17:15;6.05;;;3.25;;
57730;SDS011;43570;47.476;19.040;2022-09-17T07:19:40;5.20;;;2.70;;
57730;SDS011;43570;47.476;19.040;2022-09-17T07:22:06;5.05;;;2.62;;
57730;SDS011;43570;47.476;19.040;2022-09-17T07:24:32;6.40;;;3.12;;
57730;SDS011;43570;47.476;19.040;2022-09-17T07:26:57;4.22;;;2.60;;
57730;SDS011;43570;47.476;19.040;2022-09-17T07:29:23;4.45;;;2.37;;
57730;SDS011;43570;47.476;19.040;2022-09-17T07:31:51;6.32;;;2.62;;
57730;SDS011;43570;47.476;19.040;2022-09-17T07:34:17;7.00;;;3.03;;
57730;SDS011;43570;47.476;19.040;2022-09-17T07:36:43;5.12;;;2.60;;
57730;SDS011;43570;47.476;19.040;2022-09-17T07:39:09;7.05;;;2.97;;
57730;SDS011;43570;47.476;19.040;2022-09-17T07:41:35;4.97;;;2.70;;
57730;SDS011;43570;47.476;19.040;2022-09-17T07:44:01;7.05;;;3.15;;
57730;SDS011;43570;47.476;19.040;2022-09-17T07:46:27;4.75;;;2.65;;
57730;SDS011;43570;47.476;19.040;2022-09-17T07:48:52;4.32;;;2.20;;
57730;SDS011;43570;47.476;19.040;2022-09-17T07:51:19;3.58;;;2.15;;
57730;SDS011;43570;47.476;19.040;2022-09-17T07:53:46;3.97;;;2.58;;
57730;SDS011;43570;47.476;19.040;2022-09-17T07:56:14;5.47;;;2.70;;
57730;SDS011;43570;47.476;19.040;2022-09-17T07:58:40;6.45;;;2.72;;
57730;SDS011;43570;47.476;19.040;2022-09-17T08:01:06;4.07;;;2.33;;
57730;SDS011;43570;47.476;19.040;2022-09-17T08:03:34;5.25;;;2.40;;
57730;SDS011;43570;47.476;19.040;2022-09-17T08:06:07;2.87;;;2.10;;
57730;SDS011;43570;47.476;19.040;2022-09-17T08:08:37;4.90;;;2.05;;
57730;SDS011;43570;47.476;19.040;2022-09-17T08:11:13;4.62;;;2.30;;
57730;SDS011;43570;47.476;19.040;2022-09-17T08:13:40;7.62;;;2.40;;
57730;SDS011;43570;47.476;19.040;2022-09-17T08:16:06;4.37;;;2.28;;
57730;SDS011;43570;47.476;19.040;2022-09-17T08:18:33;3.60;;;2.10;;
57730;SDS011;43570;47.476;19.040;2022-09-17T08:21:00;5.68;;;2.40;;
57730;SDS011;43570;47.476;19.040;2022-09-17T08:23:26;6.55;;;2.30;;
57730;SDS011;43570;47.476;19.040;2022-09-17T08:25:57;4.22;;;2.37;;
57730;SDS011;43570;47.476;19.040;2022-09-17T08:28:24;4.70;;;2.20;;
57730;SDS011;43570;47.476;19.040;2022-09-17T08:30:51;5.07;;;2.30;;
57730;SDS011;43570;47.476;19.040;2022-09-17T08:33:17;4.95;;;2.50;;
57730;SDS011;43570;47.476;19.040;2022-09-17T08:35:52;5.25;;;2.50;;
57730;SDS011;43570;47.476;19.040;2022-09-17T08:38:18;5.25;;;2.55;;
57730;SDS011;43570;47.476;19.040;2022-09-17T08:41:19;8.57;;;2.90;;
57730;SDS011;43570;47.476;19.040;2022-09-17T08:46:27;6.20;;;2.70;;
57730;SDS011;43570;47.476;19.040;2022-09-17T08:49:06;4.82;;;2.72;;
57730;SDS011;43570;47.476;19.040;2022-09-17T08:52:15;4.28;;;2.45;;
57730;SDS011;43570;47.476;19.040;2022-09-17T08:54:37;5.40;;;2.58;;
57730;SDS011;43570;47.476;19.040;2022-09-17T09:07:41;8.70;;;2.85;;
57730;SDS011;43570;47.476;19.040;2022-09-17T09:10:13;5.25;;;2.70;;
57730;SDS011;43570;47.476;19.040;2022-09-17T09:12:43;5.62;;;2.62;;
57730;SDS011;43570;47.476;19.040;2022-09-17T09:17:43;5.22;;;3.10;;
57730;SDS011;43570;47.476;19.040;2022-09-17T09:20:18;5.62;;;3.33;;
57730;SDS011;43570;47.476;19.040;2022-09-17T09:22:48;5.97;;;2.90;;
57730;SDS011;43570;47.476;19.040;2022-09-17T09:27:54;9.57;;;3.78;;
57730;SDS011;43570;47.476;19.040;2022-09-17T09:30:21;6.05;;;3.28;;
57730;SDS011;43570;47.476;19.040;2022-09-17T09:35:54;5.05;;;2.78;;
57730;SDS011;43570;47.476;19.040;2022-09-17T09:38:23;6.95;;;3.15;;
57730;SDS011;43570;47.476;19.040;2022-09-17T09:41:01;6.87;;;3.20;;
57730;SDS011;43570;47.476;19.040;2022-09-17T09:43:34;6.78;;;3.53;;
57730;SDS011;43570;47.476;19.040;2022-09-17T09:52:12;5.65;;;3.12;;
57730;SDS011;43570;47.476;19.040;2022-09-17T10:03:15;4.37;;;2.47;;
57730;SDS011;43570;47.476;19.040;2022-09-17T10:06:07;3.70;;;2.42;;
57730;SDS011;43570;47.476;19.040;2022-09-17T10:08:37;4.62;;;2.30;;
57730;SDS011;43570;47.476;19.040;2022-09-17T10:11:05;5.90;;;2.83;;
57730;SDS011;43570;47.476;19.040;2022-09-17T10:13:32;5.87;;;2.78;;
57730;SDS011;43570;47.476;19.040;2022-09-17T10:16:15;5.15;;;2.75;;
57730;SDS011;43570;47.476;19.040;2022-09-17T10:18:43;3.17;;;1.90;;
57730;SDS011;43570;47.476;19.040;2022-09-17T10:21:17;4.60;;;2.50;;
57730;SDS011;43570;47.476;19.040;2022-09-17T10:23:45;5.07;;;2.50;;
57730;SDS011;43570;47.476;19.040;2022-09-17T10:26:26;4.15;;;2.25;;
57730;SDS011;43570;47.476;19.040;2022-09-17T10:28:58;4.95;;;2.78;;
57730;SDS011;43570;47.476;19.040;2022-09-17T10:31:24;4.18;;;2.37;;
57730;SDS011;43570;47.476;19.040;2022-09-17T10:33:51;5.43;;;2.30;;
57730;SDS011;43570;47.476;19.040;2022-09-17T10:36:36;3.33;;;1.77;;
57730;SDS011;43570;47.476;19.040;2022-09-17T10:44:32;3.22;;;1.90;;
57730;SDS011;43570;47.476;19.040;2022-09-17T10:47:09;6.50;;;1.98;;
57730;SDS011;43570;47.476;19.040;2022-09-17T10:49:47;8.23;;;2.00;;
57730;SDS011;43570;47.476;19.040;2022-09-17T11:00:45;6.30;;;2.60;;
57730;SDS011;43570;47.476;19.040;2022-09-17T11:11:45;4.37;;;1.98;;
57730;SDS011;43570;47.476;19.040;2022-09-17T11:25:32;4.18;;;1.85;;
57730;SDS011;43570;47.476;19.040;2022-09-17T11:28:23;6.47;;;2.00;;
57730;SDS011;43570;47.476;19.040;2022-09-17T11:31:07;4.47;;;1.70;;
57730;SDS011;43570;47.476;19.040;2022-09-17T11:36:20;4.30;;;1.52;;
57730;SDS011;43570;47.476;19.040;2022-09-17T11:38:48;6.47;;;1.87;;
57730;SDS011;43570;47.476;19.040;2022-09-17T11:41:15;3.90;;;1.55;;
57730;SDS011;43570;47.476;19.040;2022-09-17T11:43:45;5.62;;;1.55;;
57730;SDS011;43570;47.476;19.040;2022-09-17T11:52:14;3.33;;;1.42;;
57730;SDS011;43570;47.476;19.040;2022-09-17T11:57:20;4.55;;;1.83;;
57730;SDS011;43570;47.476;19.040;2022-09-17T12:06:05;4.68;;;1.65;;
57730;SDS011;43570;47.476;19.040;2022-09-17T12:10:53;5.30;;;1.90;;
57730;SDS011;43570;47.476;19.040;2022-09-17T12:16:09;3.70;;;1.67;;
57730;SDS011;43570;47.476;19.040;2022-09-17T12:32:40;6.72;;;2.22;;
57730;SDS011;43570;47.476;19.040;2022-09-17T12:49:13;3.72;;;1.70;;
57730;SDS011;43570;47.476;19.040;2022-09-17T12:51:51;4.78;;;1.70;;
57730;SDS011;43570;47.476;19.040;2022-09-17T12:59:31;7.20;;;2.17;;
57730;SDS011;43570;47.476;19.040;2022-09-17T13:02:02;6.28;;;1.80;;
57730;SDS011;43570;47.476;19.040;2022-09-17T13:10:21;5.28;;;1.83;;
57730;SDS011;43570;47.476;19.040;2022-09-17T13:15:34;3.83;;;1.67;;
57730;SDS011;43570;47.476;19.040;2022-09-17T13:23:08;5.55;;;2.08;;
57730;SDS011;43570;47.476;19.040;2022-09-17T13:25:47;6.28;;;1.92;;
57730;SDS011;43570;47.476;19.040;2022-09-17T13:28:14;4.87;;;2.10;;
57730;SDS011;43570;47.476;19.040;2022-09-17T13:36:42;5.18;;;1.85;;
57730;SDS011;43570;47.476;19.040;2022-09-17T13:39:11;5.50;;;2.00;;
57730;SDS011;43570;47.476;19.040;2022-09-17T13:42:22;7.15;;;2.42;;
57730;SDS011;43570;47.476;19.040;2022-09-17T13:45:02;7.53;;;2.50;;
57730;SDS011;43570;47.476;19.040;2022-09-17T13:47:36;3.75;;;2.40;;
57730;SDS011;43570;47.476;19.040;2022-09-17T13:50:07;5.70;;;2.10;;
57730;SDS011;43570;47.476;19.040;2022-09-17T13:52:41;6.45;;;2.25;;
57730;SDS011;43570;47.476;19.040;2022-09-17T13:55:28;5.05;;;2.20;;
57730;SDS011;43570;47.476;19.040;2022-09-17T13:57:58;6.90;;;2.40;;
57730;SDS011;43570;47.476;19.040;2022-09-17T14:10:56;4.53;;;2.20;;
57730;SDS011;43570;47.476;19.040;2022-09-17T14:13:24;5.62;;;3.35;;
57730;SDS011;43570;47.476;19.040;2022-09-17T14:15:56;4.05;;;2.28;;
57730;SDS011;43570;47.476;19.040;2022-09-17T14:20:53;7.05;;;3.05;;
57730;SDS011;43570;47.476;19.040;2022-09-17T14:23:32;6.35;;;2.42;;
57730;SDS011;43570;47.476;19.040;2022-09-17T14:25:58;5.43;;;2.60;;
57730;SDS011;43570;47.476;19.040;2022-09-17T14:30:52;4.20;;;1.90;;
57730;SDS011;43570;47.476;19.040;2022-09-17T14:33:18;5.65;;;2.20;;
57730;SDS011;43570;47.476;19.040;2022-09-17T14:35:51;6.65;;;2.10;;
57730;SDS011;43570;47.476;19.040;2022-09-17T14:38:37;5.97;;;2.05;;
57730;SDS011;43570;47.476;19.040;2022-09-17T14:46:45;4.82;;;2.20;;
57730;SDS011;43570;47.476;19.040;2022-09-17T14:51:43;4.45;;;2.15;;
57730;SDS011;43570;47.476;19.040;2022-09-17T14:54:19;5.87;;;2.25;;
57730;SDS011;43570;47.476;19.040;2022-09-17T14:56:47;4.62;;;2.30;;
57730;SDS011;43570;47.476;19.040;2022-09-17T14:59:18;5.55;;;2.15;;
57730;SDS011;43570;47.476;19.040;2022-09-17T15:01:45;5.12;;;1.80;;
57730;SDS011;43570;47.476;19.040;2022-09-17T15:06:37;5.32;;;1.80;;
57730;SDS011;43570;47.476;19.040;2022-09-17T15:09:22;7.10;;;2.30;;
57730;SDS011;43570;47.476;19.040;2022-09-17T15:11:48;4.20;;;2.05;;
57730;SDS011;43570;47.476;19.040;2022-09-17T15:14:17;8.88;;;5.12;;
57730;SDS011;43570;47.476;19.040;2022-09-17T15:16:49;6.57;;;2.35;;
57730;SDS011;43570;47.476;19.040;2022-09-17T15:19:21;4.25;;;1.70;;
57730;SDS011;43570;47.476;19.040;2022-09-17T15:21:50;4.80;;;1.80;;
57730;SDS011;43570;47.476;19.040;2022-09-17T15:27:12;4.68;;;1.92;;
57730;SDS011;43570;47.476;19.040;2022-09-17T15:29:46;4.28;;;2.00;;
57730;SDS011;43570;47.476;19.040;2022-09-17T15:32:15;8.13;;;5.10;;
57730;SDS011;43570;47.476;19.040;2022-09-17T15:34:40;7.35;;;2.20;;
57730;SDS011;43570;47.476;19.040;2022-09-17T15:39:42;3.03;;;1.60;;
57730;SDS011;43570;47.476;19.040;2022-09-17T15:42:32;3.28;;;1.58;;
57730;SDS011;43570;47.476;19.040;2022-09-17T15:45:08;4.82;;;1.83;;
57730;SDS011;43570;47.476;19.040;2022-09-17T15:52:40;4.45;;;2.30;;
57730;SDS011;43570;47.476;19.040;2022-09-17T15:55:25;4.10;;;1.90;;
57730;SDS011;43570;47.476;19.040;2022-09-17T15:57:55;4.40;;;1.70;;
57730;SDS011;43570;47.476;19.040;2022-09-17T16:00:24;5.97;;;1.85;;
57730;SDS011;43570;47.476;19.040;2022-09-17T16:02:50;6.37;;;2.20;;
57730;SDS011;43570;47.476;19.040;2022-09-17T16:07:41;5.12;;;1.73;;
57730;SDS011;43570;47.476;19.040;2022-09-17T16:10:07;3.75;;;1.90;;
57730;SDS011;43570;47.476;19.040;2022-09-17T16:12:33;5.12;;;2.20;;
57730;SDS011;43570;47.476;19.040;2022-09-17T16:14:59;6.15;;;2.25;;
57730;SDS011;43570;47.476;19.040;2022-09-17T16:17:27;5.20;;;2.08;;
57730;SDS011;43570;47.476;19.040;2022-09-17T16:22:42;7.57;;;1.70;;
57730;SDS011;43570;47.476;19.040;2022-09-17T16:25:08;6.82;;;1.65;;
57730;SDS011;43570;47.476;19.040;2022-09-17T16:27:38;6.80;;;2.50;;
57730;SDS011;43570;47.476;19.040;2022-09-17T16:30:13;4.35;;;1.80;;
57730;SDS011;43570;47.476;19.040;2022-09-17T16:32:40;4.62;;;1.62;;
57730;SDS011;43570;47.476;19.040;2022-09-17T16:35:05;5.85;;;2.20;;
57730;SDS011;43570;47.476;19.040;2022-09-17T16:37:31;3.58;;;2.00;;
57730;SDS011;43570;47.476;19.040;2022-09-17T16:39:56;6.93;;;2.70;;
57730;SDS011;43570;47.476;19.040;2022-09-17T16:42:22;4.70;;;1.95;;
57730;SDS011;43570;47.476;19.040;2022-09-17T16:44:47;6.45;;;2.10;;
57730;SDS011;43570;47.476;19.040;2022-09-17T16:47:13;4.97;;;2.10;;
57730;SDS011;43570;47.476;19.040;2022-09-17T16:49:38;4.90;;;2.20;;
57730;SDS011;43570;47.476;19.040;2022-09-17T16:52:03;4.62;;;2.08;;
57730;SDS011;43570;47.476;19.040;2022-09-17T16:54:29;4.78;;;2.03;;
57730;SDS011;43570;47.476;19.040;2022-09-17T16:56:54;3.62;;;1.75;;
57730;SDS011;43570;47.476;19.040;2022-09-17T16:59:20;4.43;;;2.03;;
57730;SDS011;43570;47.476;19.040;2022-09-17T17:01:46;3.78;;;2.17;;
57730;SDS011;43570;47.476;19.040;2022-09-17T17:04:13;4.55;;;2.03;;
57730;SDS011;43570;47.476;19.040;2022-09-17T17:06:38;5.70;;;2.05;;
57730;SDS011;43570;47.476;19.040;2022-09-17T17:09:04;5.12;;;2.00;;
57730;SDS011;43570;47.476;19.040;2022-09-17T17:11:29;3.90;;;2.62;;
57730;SDS011;43570;47.476;19.040;2022-09-17T17:13:55;4.45;;;2.03;;
57730;SDS011;43570;47.476;19.040;2022-09-17T17:16:20;4.68;;;2.00;;
57730;SDS011;43570;47.476;19.040;2022-09-17T17:18:46;3.37;;;2.08;;
57730;SDS011;43570;47.476;19.040;2022-09-17T17:21:12;4.30;;;2.42;;
57730;SDS011;43570;47.476;19.040;2022-09-17T17:23:38;3.15;;;1.98;;
57730;SDS011;43570;47.476;19.040;2022-09-17T17:26:04;4.37;;;2.22;;
57730;SDS011;43570;47.476;19.040;2022-09-17T17:28:30;5.22;;;1.98;;
57730;SDS011;43570;47.476;19.040;2022-09-17T17:30:56;4.65;;;2.30;;
57730;SDS011;43570;47.476;19.040;2022-09-17T17:33:21;5.05;;;3.17;;
57730;SDS011;43570;47.476;19.040;2022-09-17T17:35:47;4.47;;;1.92;;
57730;SDS011;43570;47.476;19.040;2022-09-17T17:38:13;2.83;;;1.87;;
57730;SDS011;43570;47.476;19.040;2022-09-17T17:40:41;5.22;;;2.25;;
57730;SDS011;43570;47.476;19.040;2022-09-17T17:43:08;5.05;;;2.90;;
57730;SDS011;43570;47.476;19.040;2022-09-17T17:45:33;5.30;;;2.20;;
57730;SDS011;43570;47.476;19.040;2022-09-17T17:47:59;5.50;;;1.98;;
57730;SDS011;43570;47.476;19.040;2022-09-17T17:50:24;4.25;;;1.73;;
57730;SDS011;43570;47.476;19.040;2022-09-17T17:52:52;6.32;;;2.25;;
57730;SDS011;43570;47.476;19.040;2022-09-17T17:55:18;3.50;;;1.98;;
57730;SDS011;43570;47.476;19.040;2022-09-17T17:57:43;3.75;;;1.92;;
57730;SDS011;43570;47.476;19.040;2022-09-17T18:00:09;5.25;;;2.22;;
57730;SDS011;43570;47.476;19.040;2022-09-17T18:02:35;4.43;;;1.77;;
57730;SDS011;43570;47.476;19.040;2022-09-17T18:05:01;4.28;;;2.20;;
57730;SDS011;43570;47.476;19.040;2022-09-17T18:07:27;3.67;;;1.75;;
57730;SDS011;43570;47.476;19.040;2022-09-17T18:09:52;4.65;;;2.10;;
57730;SDS011;43570;47.476;19.040;2022-09-17T18:12:18;5.53;;;1.90;;
57730;SDS011;43570;47.476;19.040;2022-09-17T18:14:43;3.50;;;2.05;;
57730;SDS011;43570;47.476;19.040;2022-09-17T18:17:08;5.25;;;2.25;;
57730;SDS011;43570;47.476;19.040;2022-09-17T18:19:34;4.75;;;2.30;;
57730;SDS011;43570;47.476;19.040;2022-09-17T18:21:59;3.87;;;1.77;;
57730;SDS011;43570;47.476;19.040;2022-09-17T18:24:24;4.40;;;2.12;;
57730;SDS011;43570;47.476;19.040;2022-09-17T18:26:50;4.70;;;1.80;;
57730;SDS011;43570;47.476;19.040;2022-09-17T18:29:15;4.10;;;1.90;;
57730;SDS011;43570;47.476;19.040;2022-09-17T18:31:40;2.40;;;1.80;;
57730;SDS011;43570;47.476;19.040;2022-09-17T18:34:10;3.22;;;1.80;;
57730;SDS011;43570;47.476;19.040;2022-09-17T18:36:37;2.87;;;1.77;;